createdAt,value
2017-08-27T00:01:34.419Z,32.03
2017-08-27T00:04:02.004Z,29.43
2017-08-27T00:06:29.562Z,37.20
2017-08-27T00:08:57.153Z,35.03
2017-08-27T00:11:24.737Z,33.10
2017-08-27T00:13:52.340Z,34.47
2017-08-27T00:16:19.905Z,35.50
2017-08-27T00:18:47.483Z,34.73
2017-08-27T00:21:15.046Z,35.63
2017-08-27T00:23:42.609Z,31.73
2017-08-27T00:26:10.197Z,33.53
2017-08-27T00:28:37.790Z,31.23
2017-08-27T00:31:05.395Z,33.50
2017-08-27T00:33:33.014Z,34.40
2017-08-27T00:36:00.610Z,31.80
2017-08-27T00:38:28.196Z,30.50
2017-08-27T00:40:55.778Z,30.33
2017-08-27T00:43:23.331Z,33.37
2017-08-27T00:45:50.890Z,32.57
2017-08-27T00:48:18.498Z,34.27
2017-08-27T00:50:46.117Z,32.53
2017-08-27T00:53:13.669Z,31.60
2017-08-27T00:55:41.246Z,29.17
2017-08-27T00:58:08.902Z,32.53
2017-08-27T01:00:36.466Z,30.87
2017-08-27T01:03:04.055Z,33.40
2017-08-27T01:05:31.772Z,32.80
2017-08-27T01:07:59.339Z,32.40
2017-08-27T01:10:26.912Z,35.67
2017-08-27T01:12:54.556Z,41.77
2017-08-27T01:15:22.138Z,39.83
2017-08-27T01:17:49.724Z,42.03
2017-08-27T01:20:17.326Z,38.13
2017-08-27T01:22:44.911Z,38.60
2017-08-27T01:25:12.503Z,36.97
2017-08-27T01:27:40.063Z,36.13
2017-08-27T01:30:07.758Z,36.03
2017-08-27T01:32:35.342Z,31.90
2017-08-27T01:35:02.923Z,32.67
2017-08-27T01:37:30.484Z,31.30
2017-08-27T01:39:58.094Z,34.87
2017-08-27T01:42:25.631Z,33.83
2017-08-27T01:44:53.368Z,36.67
2017-08-27T01:47:20.929Z,32.60
2017-08-27T01:49:48.537Z,35.03
2017-08-27T01:52:16.124Z,34.93
2017-08-27T01:54:43.682Z,34.77
2017-08-27T01:57:11.279Z,37.80
2017-08-27T01:59:38.837Z,39.63
2017-08-27T02:02:06.520Z,38.90
2017-08-27T02:04:34.341Z,37.17
2017-08-27T02:07:01.933Z,41.23
2017-08-27T02:09:29.521Z,38.03
2017-08-27T02:11:57.084Z,38.47
2017-08-27T02:14:24.645Z,36.30
2017-08-27T02:16:52.230Z,39.00
2017-08-27T02:19:19.911Z,41.27
2017-08-27T02:21:47.498Z,39.60
2017-08-27T02:24:15.042Z,38.83
2017-08-27T02:26:42.642Z,39.87
2017-08-27T02:29:10.200Z,42.70
2017-08-27T02:31:38.483Z,40.43
2017-08-27T02:34:06.131Z,44.80
2017-08-27T02:36:33.722Z,49.40
2017-08-27T02:39:01.308Z,47.93
2017-08-27T02:41:29.076Z,42.27
2017-08-27T02:43:56.634Z,43.47
2017-08-27T02:46:24.341Z,47.03
2017-08-27T02:48:51.898Z,43.37
2017-08-27T02:51:19.470Z,43.63
2017-08-27T02:53:47.046Z,39.57
2017-08-27T02:56:14.682Z,41.27
2017-08-27T02:58:42.259Z,41.97
2017-08-27T03:01:09.974Z,39.93
2017-08-27T03:03:37.546Z,46.40
2017-08-27T03:06:05.105Z,43.40
2017-08-27T03:08:32.665Z,42.33
2017-08-27T03:11:00.293Z,48.43
2017-08-27T03:13:27.865Z,45.17
2017-08-27T03:15:55.429Z,47.07
2017-08-27T03:18:23.000Z,41.47
2017-08-27T03:20:50.574Z,50.43
2017-08-27T03:23:18.127Z,37.73
2017-08-27T03:25:45.723Z,42.17
2017-08-27T03:28:13.297Z,39.67
2017-08-27T03:30:40.861Z,45.97
2017-08-27T03:33:08.439Z,40.63
2017-08-27T03:35:36.012Z,37.83
2017-08-27T03:38:03.578Z,38.30
2017-08-27T03:40:31.370Z,36.07
2017-08-27T03:42:58.946Z,35.97
2017-08-27T03:45:26.525Z,44.73
2017-08-27T03:47:54.092Z,42.67
2017-08-27T03:50:21.662Z,41.50
2017-08-27T03:52:49.229Z,43.50
2017-08-27T03:55:16.791Z,43.07
2017-08-27T03:57:44.361Z,45.67
2017-08-27T04:00:11.939Z,47.00
2017-08-27T04:02:39.514Z,47.80
2017-08-27T04:05:07.222Z,46.27
2017-08-27T04:07:34.810Z,45.73
2017-08-27T04:10:02.390Z,42.27
2017-08-27T04:12:29.974Z,43.87
2017-08-27T04:14:57.522Z,45.27
2017-08-27T04:17:25.115Z,46.40
2017-08-27T04:19:52.788Z,44.00
2017-08-27T04:22:20.400Z,54.73
2017-08-27T04:24:47.989Z,45.07
2017-08-27T04:27:15.542Z,50.70
2017-08-27T04:29:43.109Z,50.63
2017-08-27T04:32:10.725Z,53.30
2017-08-27T04:34:38.370Z,54.47
2017-08-27T04:37:06.010Z,59.33
2017-08-27T04:39:33.607Z,48.80
2017-08-27T04:42:01.182Z,54.53
2017-08-27T04:44:28.755Z,47.10
2017-08-27T04:46:56.490Z,47.73
2017-08-27T04:49:24.070Z,49.67
2017-08-27T04:51:51.659Z,50.33
2017-08-27T04:54:19.333Z,51.10
2017-08-27T04:56:47.010Z,47.93
2017-08-27T04:59:14.587Z,49.83
2017-08-27T05:01:42.143Z,48.43
2017-08-27T05:04:09.721Z,51.97
2017-08-27T05:06:37.305Z,49.27
2017-08-27T05:09:04.863Z,57.37
2017-08-27T05:11:32.457Z,51.57
2017-08-27T05:14:00.121Z,57.57
2017-08-27T05:16:27.687Z,56.10
2017-08-27T05:18:55.253Z,60.23
2017-08-27T05:21:22.823Z,62.03
2017-08-27T05:23:50.408Z,60.03
2017-08-27T05:26:17.982Z,59.03
2017-08-27T05:28:46.095Z,59.80
2017-08-27T05:31:13.694Z,57.33
2017-08-27T05:33:41.263Z,57.57
2017-08-27T05:36:08.976Z,57.53
2017-08-27T05:38:36.538Z,56.33
2017-08-27T05:41:04.135Z,60.83
2017-08-27T05:43:31.721Z,60.30
2017-08-27T05:45:59.298Z,57.77
2017-08-27T05:48:26.887Z,59.37
2017-08-27T05:50:54.475Z,58.60
2017-08-27T05:53:22.061Z,61.53
2017-08-27T05:55:49.647Z,62.03
2017-08-27T05:58:17.238Z,61.17
2017-08-27T06:00:45.066Z,63.07
2017-08-27T06:03:12.618Z,68.73
2017-08-27T06:05:40.218Z,62.63
2017-08-27T06:08:07.810Z,65.73
2017-08-27T06:10:35.369Z,63.03
2017-08-27T06:13:02.946Z,64.03
2017-08-27T06:15:30.554Z,60.57
2017-08-27T06:17:58.141Z,59.57
2017-08-27T06:20:25.710Z,60.77
2017-08-27T06:22:53.306Z,56.00
2017-08-27T06:25:20.940Z,58.00
2017-08-27T06:27:48.505Z,55.43
2017-08-27T06:30:16.087Z,53.80
2017-08-27T06:32:43.671Z,53.30
2017-08-27T06:35:11.237Z,53.37
2017-08-27T06:37:38.834Z,53.90
2017-08-27T06:40:06.406Z,52.17
2017-08-27T06:42:33.961Z,54.03
2017-08-27T06:45:01.556Z,56.40
2017-08-27T06:47:29.161Z,55.33
2017-08-27T06:49:56.732Z,55.70
2017-08-27T06:52:24.299Z,57.60
2017-08-27T06:54:51.891Z,56.77
2017-08-27T06:57:19.462Z,56.40
2017-08-27T06:59:47.026Z,57.87
2017-08-27T07:02:14.599Z,60.47
2017-08-27T07:04:42.270Z,58.20
2017-08-27T07:07:09.873Z,58.33
2017-08-27T07:09:37.483Z,54.30
2017-08-27T07:12:05.053Z,57.50
2017-08-27T07:14:32.645Z,56.07
2017-08-27T07:17:00.198Z,54.17
2017-08-27T07:19:27.800Z,53.83
2017-08-27T07:21:55.354Z,55.43
2017-08-27T07:24:23.094Z,59.60
2017-08-27T07:26:50.662Z,54.13
2017-08-27T07:29:18.233Z,55.43
2017-08-27T07:31:45.809Z,52.37
2017-08-27T07:34:13.371Z,53.40
2017-08-27T07:36:41.011Z,53.27
2017-08-27T07:39:08.669Z,53.33
2017-08-27T07:41:36.238Z,53.10
2017-08-27T07:44:03.823Z,53.00
2017-08-27T07:46:31.382Z,51.93
2017-08-27T07:48:58.943Z,50.60
2017-08-27T07:51:26.522Z,48.37
2017-08-27T07:53:54.088Z,49.63
2017-08-27T07:56:21.727Z,49.33
2017-08-27T07:58:49.419Z,51.03
2017-08-27T08:01:16.998Z,50.30
2017-08-27T08:03:44.577Z,47.63
2017-08-27T08:06:12.162Z,45.57
2017-08-27T08:08:39.762Z,47.43
2017-08-27T08:11:07.326Z,44.63
2017-08-27T08:13:34.913Z,44.07
2017-08-27T08:16:02.505Z,41.43
2017-08-27T08:18:31.674Z,41.30
2017-08-27T08:20:59.245Z,41.37
2017-08-27T08:23:26.822Z,40.97
2017-08-27T08:25:54.443Z,39.43
2017-08-27T08:28:22.124Z,41.13
2017-08-27T08:30:49.849Z,41.53
2017-08-27T08:33:17.438Z,39.27
2017-08-27T08:35:45.058Z,38.87
2017-08-27T08:38:12.626Z,40.33
2017-08-27T08:40:40.208Z,39.50
2017-08-27T08:43:07.809Z,38.23
2017-08-27T08:45:35.378Z,38.07
2017-08-27T08:48:02.980Z,35.83
2017-08-27T08:50:31.281Z,37.47
2017-08-27T08:52:58.851Z,37.87
2017-08-27T08:55:26.446Z,37.60
2017-08-27T08:57:54.061Z,38.10
2017-08-27T09:00:21.636Z,38.30
2017-08-27T09:02:49.229Z,37.27
2017-08-27T09:05:16.794Z,35.63
2017-08-27T09:07:44.373Z,38.50
2017-08-27T09:10:12.026Z,38.37
2017-08-27T09:12:39.595Z,33.40
2017-08-27T09:15:07.213Z,31.53
2017-08-27T09:17:34.807Z,34.27
2017-08-27T09:20:02.394Z,35.90
2017-08-27T09:22:30.003Z,33.20
2017-08-27T09:24:57.557Z,31.60
2017-08-27T09:27:25.129Z,32.90
2017-08-27T09:29:52.799Z,34.63
2017-08-27T09:32:20.384Z,33.93
2017-08-27T09:34:47.997Z,32.23
2017-08-27T09:37:15.555Z,31.47
2017-08-27T09:39:43.159Z,28.07
2017-08-27T09:42:10.733Z,28.13
2017-08-27T09:44:38.328Z,26.90
2017-08-27T09:47:05.857Z,29.77
2017-08-27T09:49:33.568Z,27.70
2017-08-27T09:52:01.138Z,25.13
2017-08-27T09:54:28.701Z,24.30
2017-08-27T09:56:56.294Z,24.03
2017-08-27T09:59:23.858Z,24.07
2017-08-27T10:01:51.486Z,24.57
2017-08-27T10:04:19.079Z,22.27
2017-08-27T10:06:46.794Z,21.23
2017-08-27T10:09:14.358Z,14.53
2017-08-27T10:11:41.938Z,15.10
2017-08-27T10:14:09.643Z,14.80
2017-08-27T10:16:37.251Z,16.37
2017-08-27T10:19:04.838Z,16.60
2017-08-27T10:21:32.442Z,13.90
2017-08-27T10:24:00.031Z,14.23
2017-08-27T10:26:27.667Z,16.37
2017-08-27T10:28:55.363Z,15.13
2017-08-27T10:31:23.395Z,16.70
2017-08-27T10:33:51.010Z,13.80
2017-08-27T10:36:18.583Z,14.40
2017-08-27T10:38:46.173Z,13.07
2017-08-27T10:41:13.786Z,11.43
2017-08-27T10:43:41.446Z,11.27
2017-08-27T10:46:09.205Z,11.10
2017-08-27T10:48:36.804Z,12.33
2017-08-27T10:51:05.414Z,10.43
2017-08-27T10:53:33.019Z,11.80
2017-08-27T10:56:00.639Z,12.93
2017-08-27T10:58:28.404Z,13.73
2017-08-27T11:00:56.023Z,14.00
2017-08-27T11:03:23.639Z,11.30
2017-08-27T11:05:51.215Z,9.00
2017-08-27T11:08:18.943Z,11.87
2017-08-27T11:10:46.543Z,12.03
2017-08-27T11:13:14.114Z,11.50
2017-08-27T11:15:41.682Z,11.43
2017-08-27T11:18:09.285Z,9.93
2017-08-27T11:20:36.906Z,11.67
2017-08-27T11:23:04.666Z,9.90
2017-08-27T11:25:32.237Z,11.33
2017-08-27T11:27:59.833Z,11.43
2017-08-27T11:30:27.414Z,10.10
2017-08-27T11:32:54.999Z,10.83
2017-08-27T11:35:22.652Z,14.20
2017-08-27T11:37:50.251Z,11.83
2017-08-27T11:40:17.835Z,10.60
2017-08-27T11:42:46.390Z,11.40
2017-08-27T11:45:13.993Z,9.93
2017-08-27T11:47:41.571Z,10.03
2017-08-27T11:50:09.157Z,10.00
2017-08-27T11:52:36.759Z,10.67
2017-08-27T11:55:04.335Z,8.70
2017-08-27T11:57:31.923Z,9.83
2017-08-27T11:59:59.545Z,7.63
2017-08-27T12:02:27.106Z,7.67
2017-08-27T12:04:54.680Z,7.70
2017-08-27T12:07:22.306Z,9.13
2017-08-27T12:09:49.859Z,7.70
2017-08-27T12:12:17.521Z,9.70
2017-08-27T12:14:45.082Z,7.57
2017-08-27T12:17:12.626Z,9.53
2017-08-27T12:19:40.219Z,8.23
2017-08-27T12:22:07.814Z,7.57
2017-08-27T12:24:35.400Z,7.00
2017-08-27T12:27:03.009Z,7.57
2017-08-27T12:29:30.594Z,8.30
2017-08-27T12:31:58.181Z,8.40
2017-08-27T12:34:25.772Z,9.60
2017-08-27T12:36:53.359Z,7.87
2017-08-27T12:39:20.957Z,10.37
2017-08-27T12:41:48.589Z,8.20
2017-08-27T12:44:16.215Z,6.57
2017-08-27T12:46:43.807Z,8.53
2017-08-27T12:49:11.425Z,6.40
2017-08-27T12:51:39.038Z,8.00
2017-08-27T12:54:06.594Z,6.13
2017-08-27T12:56:34.190Z,6.13
2017-08-27T12:59:01.765Z,5.77
2017-08-27T13:01:29.352Z,7.90
2017-08-27T13:03:56.947Z,6.67
2017-08-27T13:06:24.521Z,5.33
2017-08-27T13:08:52.073Z,4.83
2017-08-27T13:11:19.647Z,4.70
2017-08-27T13:13:48.027Z,4.70
2017-08-27T13:16:15.596Z,8.83
2017-08-27T13:18:43.194Z,6.60
2017-08-27T13:21:10.792Z,7.00
2017-08-27T13:23:38.486Z,5.33
2017-08-27T13:26:06.088Z,7.10
2017-08-27T13:28:33.690Z,7.63
2017-08-27T13:31:01.292Z,10.03
2017-08-27T13:33:28.945Z,8.43
2017-08-27T13:35:56.515Z,5.73
2017-08-27T13:38:24.133Z,6.30
2017-08-27T13:40:51.730Z,7.53
2017-08-27T13:43:19.326Z,6.60
2017-08-27T13:45:46.887Z,10.03
2017-08-27T13:48:14.478Z,7.43
2017-08-27T13:50:42.033Z,5.50
2017-08-27T13:53:09.642Z,8.27
2017-08-27T13:55:37.189Z,5.50
2017-08-27T13:58:04.756Z,6.57
2017-08-27T14:00:32.348Z,5.47
2017-08-27T14:02:59.913Z,5.90
2017-08-27T14:05:27.495Z,6.00
2017-08-27T14:07:55.092Z,6.37
2017-08-27T14:10:22.674Z,5.27
2017-08-27T14:12:50.266Z,5.83
2017-08-27T14:15:17.885Z,7.07
2017-08-27T14:17:45.478Z,5.83
2017-08-27T14:20:13.086Z,7.47
2017-08-27T14:22:40.911Z,5.90
2017-08-27T14:25:08.508Z,6.23
2017-08-27T14:27:36.085Z,5.30
2017-08-27T14:30:03.682Z,5.80
2017-08-27T14:32:31.258Z,6.33
2017-08-27T14:34:58.879Z,5.20
2017-08-27T14:37:26.455Z,5.80
2017-08-27T14:39:54.050Z,7.10
2017-08-27T14:42:21.651Z,6.97
2017-08-27T14:44:49.362Z,8.93
2017-08-27T14:47:16.938Z,7.53
2017-08-27T14:49:44.518Z,10.73
2017-08-27T14:52:12.083Z,7.47
2017-08-27T14:54:39.667Z,11.20
2017-08-27T14:57:07.245Z,9.77
2017-08-27T14:59:34.846Z,8.80
2017-08-27T15:02:02.426Z,8.27
2017-08-27T15:04:30.038Z,8.50
2017-08-27T15:06:57.758Z,11.97
2017-08-27T15:09:25.343Z,12.00
2017-08-27T15:11:52.918Z,9.40
2017-08-27T15:14:20.498Z,6.70
2017-08-27T15:16:48.054Z,7.33
2017-08-27T15:19:15.667Z,9.30
2017-08-27T15:21:43.270Z,5.67
2017-08-27T15:24:10.834Z,7.70
2017-08-27T15:26:38.430Z,6.90
2017-08-27T15:29:06.045Z,9.50
2017-08-27T15:31:33.705Z,5.90
2017-08-27T15:34:01.282Z,8.70
2017-08-27T15:36:28.879Z,6.20
2017-08-27T15:38:56.443Z,5.30
2017-08-27T15:41:24.032Z,8.40
2017-08-27T15:43:51.593Z,6.87
2017-08-27T15:46:19.191Z,7.20
2017-08-27T15:48:46.793Z,6.40
2017-08-27T15:51:14.381Z,5.50
2017-08-27T15:53:41.947Z,5.83
2017-08-27T15:56:09.570Z,7.70
2017-08-27T15:58:37.175Z,5.67
2017-08-27T16:01:04.740Z,9.67
2017-08-27T16:03:32.336Z,7.23
2017-08-27T16:05:59.904Z,6.27
2017-08-27T16:08:27.480Z,4.40
2017-08-27T16:10:55.108Z,4.37
2017-08-27T16:13:22.839Z,5.30
2017-08-27T16:15:50.428Z,5.07
2017-08-27T16:18:18.010Z,6.17
2017-08-27T16:20:45.605Z,9.67
2017-08-27T16:23:13.182Z,7.00
2017-08-27T16:25:40.753Z,8.20
2017-08-27T16:28:08.338Z,7.90
2017-08-27T16:30:35.906Z,5.50
2017-08-27T16:33:03.471Z,11.90
2017-08-27T16:35:31.042Z,5.27
2017-08-27T16:37:58.627Z,5.57
2017-08-27T16:40:26.181Z,5.57
2017-08-27T16:42:53.928Z,5.77
2017-08-27T16:45:21.528Z,4.03
2017-08-27T16:47:49.078Z,5.30
2017-08-27T16:50:16.674Z,6.80
2017-08-27T16:52:44.223Z,3.40
2017-08-27T16:55:11.814Z,5.43
2017-08-27T16:57:39.427Z,6.73
2017-08-27T17:00:07.043Z,6.27
2017-08-27T17:02:34.592Z,4.90
2017-08-27T17:05:02.210Z,6.13
2017-08-27T17:07:29.773Z,7.10
2017-08-27T17:09:57.369Z,4.13
2017-08-27T17:12:25.690Z,4.50
2017-08-27T17:14:53.281Z,6.30
2017-08-27T17:17:20.857Z,6.40
2017-08-27T17:19:48.443Z,5.03
2017-08-27T17:22:16.089Z,4.50
2017-08-27T17:24:43.688Z,4.30
2017-08-27T17:27:11.262Z,5.60
2017-08-27T17:29:38.858Z,5.63
2017-08-27T17:32:06.509Z,4.83
2017-08-27T17:34:34.093Z,3.90
2017-08-27T17:37:01.757Z,4.93
2017-08-27T17:39:29.350Z,4.43
2017-08-27T17:41:56.942Z,4.87
2017-08-27T17:44:24.540Z,4.30
2017-08-27T17:46:52.099Z,4.27
2017-08-27T17:49:19.741Z,5.00
2017-08-27T17:51:47.316Z,6.40
2017-08-27T17:54:15.018Z,7.10
2017-08-27T17:56:42.613Z,7.27
2017-08-27T17:59:10.171Z,8.33
2017-08-27T18:01:37.740Z,6.77
2017-08-27T18:04:05.318Z,17.70
2017-08-27T18:06:33.679Z,4.63
2017-08-27T18:09:01.254Z,4.10
2017-08-27T18:11:28.903Z,5.30
2017-08-27T18:13:56.494Z,4.93
2017-08-27T18:16:24.064Z,5.53
2017-08-27T18:18:51.654Z,4.53
2017-08-27T18:21:19.214Z,5.30
2017-08-27T18:23:46.806Z,6.00
2017-08-27T18:26:14.386Z,6.07
2017-08-27T18:28:41.958Z,8.13
2017-08-27T18:31:09.544Z,5.20
2017-08-27T18:33:37.189Z,6.83
2017-08-27T18:36:04.786Z,7.97
2017-08-27T18:38:32.350Z,4.80
2017-08-27T18:40:59.953Z,6.43
2017-08-27T18:43:27.513Z,9.93
2017-08-27T18:45:55.098Z,5.37
2017-08-27T18:48:22.659Z,6.83
2017-08-27T18:50:50.280Z,10.00
2017-08-27T18:53:17.906Z,11.63
2017-08-27T18:55:45.485Z,10.40
2017-08-27T18:58:13.101Z,7.40
2017-08-27T19:00:40.722Z,6.37
2017-08-27T19:03:09.385Z,5.07
2017-08-27T19:05:36.972Z,5.70
2017-08-27T19:08:04.592Z,7.23
2017-08-27T19:10:32.190Z,9.60
2017-08-27T19:12:59.812Z,14.00
2017-08-27T19:15:27.404Z,10.13
2017-08-27T19:17:55.057Z,6.50
2017-08-27T19:20:22.726Z,8.13
2017-08-27T19:22:50.339Z,5.50
2017-08-27T19:25:18.002Z,5.80
2017-08-27T19:27:45.648Z,7.07
2017-08-27T19:30:13.318Z,7.53
2017-08-27T19:32:40.984Z,8.60
2017-08-27T19:35:08.654Z,13.37
2017-08-27T19:37:36.532Z,9.00
2017-08-27T19:40:04.211Z,6.27
2017-08-27T19:42:31.820Z,8.83
2017-08-27T19:44:59.796Z,5.80
2017-08-27T19:47:27.426Z,6.60
2017-08-27T19:49:55.157Z,7.80
2017-08-27T19:52:24.194Z,9.70
2017-08-27T19:54:51.771Z,6.70
2017-08-27T19:57:19.429Z,7.73
2017-08-27T19:59:47.250Z,8.67
2017-08-27T20:02:15.686Z,8.60
2017-08-27T20:04:43.488Z,5.67
2017-08-27T20:07:11.151Z,6.83
2017-08-27T20:09:38.854Z,6.37
2017-08-27T20:12:07.412Z,6.00
2017-08-27T20:14:35.059Z,8.70
2017-08-27T20:17:02.794Z,5.63
2017-08-27T20:19:30.688Z,4.73
2017-08-27T20:21:58.315Z,5.77
2017-08-27T20:24:26.110Z,5.67
2017-08-27T20:26:53.863Z,9.17
2017-08-27T20:29:21.634Z,5.53
2017-08-27T20:31:49.357Z,5.77
2017-08-27T20:34:16.965Z,5.53
2017-08-27T20:36:44.570Z,5.97
2017-08-27T20:39:12.181Z,10.63
2017-08-27T20:41:39.750Z,5.23
2017-08-27T20:44:07.321Z,9.47
2017-08-27T20:46:34.967Z,5.40
2017-08-27T20:49:02.634Z,6.20
2017-08-27T20:51:30.225Z,5.83
2017-08-27T20:53:57.795Z,9.10
2017-08-27T20:56:25.398Z,5.83
2017-08-27T20:58:52.957Z,6.50
2017-08-27T21:01:20.564Z,8.90
2017-08-27T21:03:48.139Z,7.03
2017-08-27T21:06:15.691Z,8.47
2017-08-27T21:08:43.272Z,6.20
2017-08-27T21:11:10.874Z,7.33
2017-08-27T21:13:38.475Z,8.70
2017-08-27T21:16:06.058Z,7.20
2017-08-27T21:18:33.618Z,9.20
2017-08-27T21:21:01.200Z,7.77
2017-08-27T21:23:28.791Z,5.87
2017-08-27T21:25:57.270Z,7.23
2017-08-27T21:28:25.761Z,7.27
2017-08-27T21:30:54.246Z,6.57
2017-08-27T21:33:22.721Z,9.03
2017-08-27T21:35:50.314Z,5.80
2017-08-27T21:38:17.884Z,8.80
2017-08-27T21:40:45.479Z,8.20
2017-08-27T21:43:13.052Z,7.00
2017-08-27T21:45:40.635Z,11.17
2017-08-27T21:48:08.220Z,7.10
2017-08-27T21:50:35.857Z,9.53
2017-08-27T21:53:03.429Z,8.10
2017-08-27T21:55:30.987Z,7.10
2017-08-27T21:57:58.678Z,6.67
2017-08-27T22:00:35.225Z,5.33
2017-08-27T22:03:02.793Z,9.83
2017-08-27T22:05:30.495Z,7.60
2017-08-27T22:07:58.156Z,11.07
2017-08-27T22:10:25.769Z,8.70
2017-08-27T22:12:53.354Z,6.90
2017-08-27T22:15:21.015Z,6.87
2017-08-27T22:17:48.602Z,6.80
2017-08-27T22:20:16.185Z,6.33
2017-08-27T22:22:43.769Z,8.00
2017-08-27T22:25:11.510Z,6.50
2017-08-27T22:27:39.112Z,9.97
2017-08-27T22:30:06.685Z,5.63
2017-08-27T22:32:34.280Z,6.10
2017-08-27T22:35:01.850Z,7.50
2017-08-27T22:37:29.428Z,6.60
2017-08-27T22:39:57.025Z,5.90
2017-08-27T22:42:24.611Z,6.53
2017-08-27T22:44:52.208Z,9.90
2017-08-27T22:47:19.791Z,6.13
2017-08-27T22:49:47.338Z,8.90
2017-08-27T22:52:15.091Z,6.20
2017-08-27T22:54:42.846Z,7.10
2017-08-27T22:57:10.420Z,9.27
2017-08-27T22:59:38.084Z,7.30
2017-08-27T23:02:05.658Z,6.80
2017-08-27T23:04:33.223Z,6.83
2017-08-27T23:07:00.815Z,7.40
2017-08-27T23:09:28.462Z,6.10
2017-08-27T23:11:56.053Z,7.80
2017-08-27T23:14:23.643Z,6.40
2017-08-27T23:16:51.225Z,17.53
2017-08-27T23:19:18.803Z,8.07
2017-08-27T23:21:46.506Z,7.50
2017-08-27T23:24:14.078Z,8.07
2017-08-27T23:26:41.674Z,10.07
2017-08-27T23:29:09.268Z,11.17
2017-08-27T23:31:36.860Z,7.53
2017-08-27T23:34:04.433Z,7.60
2017-08-27T23:36:32.022Z,9.20
2017-08-27T23:38:59.594Z,10.20
2017-08-27T23:41:27.211Z,9.00
2017-08-27T23:43:54.766Z,9.87
2017-08-27T23:46:22.375Z,7.90
2017-08-27T23:48:49.978Z,9.03
2017-08-27T23:51:17.560Z,7.77
2017-08-27T23:53:45.220Z,7.20
2017-08-27T23:56:12.878Z,8.23
2017-08-27T23:58:40.486Z,7.33
